createdAt,value
2022-11-16T00:01:09.624Z,100663.48
2022-11-16T00:03:42.445Z,100659.77
2022-11-16T00:06:15.654Z,100650.79
2022-11-16T00:12:08.995Z,100651.02
2022-11-16T00:14:42.342Z,100646.73
2022-11-16T00:17:14.542Z,100643.55
2022-11-16T00:19:48.234Z,100641.58
2022-11-16T00:22:20.341Z,100639.67
2022-11-16T00:24:52.944Z,100640.45
2022-11-16T00:27:25.160Z,100636.39
2022-11-16T00:29:57.360Z,100637.33
2022-11-16T00:32:29.827Z,100635.08
2022-11-16T00:35:01.991Z,100631.45
2022-11-16T00:37:34.962Z,100635.19
2022-11-16T00:40:11.599Z,100638.05
2022-11-16T00:42:44.084Z,100636.34
2022-11-16T00:45:16.357Z,100639.48
2022-11-16T00:47:48.565Z,100636.76
2022-11-16T00:50:21.911Z,100634.58
2022-11-16T00:52:54.274Z,100628.90
2022-11-16T00:55:26.727Z,100630.34
2022-11-16T00:58:02.538Z,100631.03
2022-11-16T01:00:35.017Z,100634.67
2022-11-16T01:03:07.995Z,100636.40
2022-11-16T01:05:40.522Z,100636.31
2022-11-16T01:08:12.881Z,100644.95
2022-11-16T01:11:19.166Z,100648.77
2022-11-16T01:13:53.751Z,100659.48
2022-11-16T01:16:27.097Z,100662.52
2022-11-16T01:18:59.355Z,100664.59
2022-11-16T01:21:31.845Z,100657.01
2022-11-16T01:24:03.984Z,100649.92
2022-11-16T01:26:36.194Z,100642.21
2022-11-16T01:29:09.174Z,100640.30
2022-11-16T01:31:45.492Z,100637.30
2022-11-16T01:34:17.987Z,100636.13
2022-11-16T01:36:51.508Z,100635.12
2022-11-16T01:39:24.346Z,100636.38
2022-11-16T01:42:00.153Z,100631.61
2022-11-16T01:47:51.263Z,100628.54
2022-11-16T01:50:26.124Z,100619.83
2022-11-16T01:53:03.547Z,100615.23
2022-11-16T01:55:48.410Z,100611.39
2022-11-16T01:58:48.392Z,100606.62
2022-11-16T02:01:26.951Z,100611.69
2022-11-16T02:04:00.651Z,100611.54
2022-11-16T02:06:42.568Z,100614.61
2022-11-16T02:09:58.285Z,100613.68
2022-11-16T02:12:53.504Z,100605.67
2022-11-16T02:15:33.178Z,100603.34
2022-11-16T02:18:35.827Z,100597.81
2022-11-16T02:21:19.023Z,100596.86
2022-11-16T02:24:31.413Z,100595.52
2022-11-16T02:27:34.437Z,100583.48
2022-11-16T02:30:08.643Z,100592.33
2022-11-16T02:32:52.439Z,100597.23
2022-11-16T02:35:30.146Z,100590.25
2022-11-16T02:38:08.423Z,100585.23
2022-11-16T02:40:48.699Z,100581.17
2022-11-16T02:43:48.321Z,100585.66
2022-11-16T02:46:27.284Z,100589.61
2022-11-16T02:49:04.774Z,100590.77
2022-11-16T02:51:41.183Z,100583.99
2022-11-16T02:54:16.951Z,100581.04
2022-11-16T02:56:56.592Z,100570.91
2022-11-16T02:59:40.531Z,100571.50
2022-11-16T03:02:24.057Z,100576.89
2022-11-16T03:05:01.027Z,100574.26
2022-11-16T03:07:40.070Z,100575.88
2022-11-16T03:10:33.919Z,100577.30
2022-11-16T03:13:17.717Z,100577.30
2022-11-16T03:15:51.999Z,100578.05
2022-11-16T03:18:27.440Z,100576.33
2022-11-16T03:21:07.441Z,100572.88
2022-11-16T03:23:40.023Z,100570.02
2022-11-16T03:26:17.789Z,100572.14
2022-11-16T03:28:58.913Z,100572.55
2022-11-16T03:31:36.015Z,100562.36
2022-11-16T03:34:16.262Z,100564.39
2022-11-16T03:36:51.590Z,100560.36
2022-11-16T03:39:32.601Z,100559.90
2022-11-16T03:42:08.544Z,100563.70
2022-11-16T03:44:42.037Z,100565.48
2022-11-16T03:47:14.975Z,100566.42
2022-11-16T03:49:48.869Z,100560.29
2022-11-16T03:52:23.123Z,100558.02
2022-11-16T03:54:55.450Z,100556.65
2022-11-16T03:57:29.060Z,100548.19
2022-11-16T04:00:04.126Z,100553.14
2022-11-16T04:02:53.233Z,100553.54
2022-11-16T04:05:44.303Z,100554.41
2022-11-16T04:08:38.068Z,100548.40
2022-11-16T04:11:30.129Z,100554.55
2022-11-16T04:14:19.982Z,100550.86
2022-11-16T04:17:09.976Z,100556.39
2022-11-16T04:20:00.091Z,100555.34
2022-11-16T04:23:00.599Z,100550.77
2022-11-16T04:25:40.208Z,100545.69
2022-11-16T04:28:21.158Z,100548.23
2022-11-16T04:31:17.120Z,100550.23
2022-11-16T04:34:27.694Z,100540.85
2022-11-16T04:37:19.812Z,100538.81
2022-11-16T04:39:53.134Z,100540.59
2022-11-16T04:42:26.356Z,100540.63
2022-11-16T04:45:16.298Z,100536.67
2022-11-16T04:47:52.992Z,100536.05
2022-11-16T04:50:29.028Z,100530.76
2022-11-16T04:53:04.813Z,100532.89
2022-11-16T04:55:39.796Z,100531.40
2022-11-16T04:58:13.041Z,100528.84
2022-11-16T05:00:45.444Z,100531.29
2022-11-16T05:03:18.192Z,100530.55
2022-11-16T05:06:15.936Z,100533.02
2022-11-16T05:08:48.032Z,100531.13
2022-11-16T05:11:20.374Z,100527.88
2022-11-16T05:13:52.863Z,100524.90
2022-11-16T05:16:25.184Z,100525.42
2022-11-16T05:19:15.756Z,100523.34
2022-11-16T05:21:50.355Z,100516.61
2022-11-16T05:24:35.511Z,100520.12
2022-11-16T05:27:10.894Z,100518.14
2022-11-16T05:29:43.672Z,100516.83
2022-11-16T05:32:17.269Z,100518.19
2022-11-16T05:34:50.186Z,100519.75
2022-11-16T05:37:26.369Z,100517.02
2022-11-16T05:39:58.615Z,100517.20
2022-11-16T05:42:42.274Z,100519.17
2022-11-16T05:45:19.819Z,100518.43
2022-11-16T05:47:53.346Z,100519.98
2022-11-16T05:50:26.965Z,100522.08
2022-11-16T05:53:09.541Z,100517.40
2022-11-16T05:55:41.675Z,100526.69
2022-11-16T05:58:13.828Z,100520.33
2022-11-16T06:00:46.926Z,100520.86
2022-11-16T06:03:19.990Z,100512.35
2022-11-16T06:05:57.873Z,100507.29
2022-11-16T06:08:31.690Z,100509.80
2022-11-16T06:11:06.931Z,100509.11
2022-11-16T06:13:41.114Z,100505.97
2022-11-16T06:16:13.724Z,100502.11
2022-11-16T06:18:48.620Z,100501.05
2022-11-16T06:21:22.128Z,100498.76
2022-11-16T06:23:54.462Z,100497.33
2022-11-16T06:26:29.370Z,100490.59
2022-11-16T06:29:02.118Z,100489.46
2022-11-16T06:31:34.592Z,100494.33
2022-11-16T06:34:09.906Z,100496.30
2022-11-16T06:36:41.991Z,100500.02
2022-11-16T06:39:14.847Z,100497.39
2022-11-16T06:41:49.319Z,100494.25
2022-11-16T06:44:21.688Z,100493.94
2022-11-16T06:47:00.437Z,100494.30
2022-11-16T06:49:33.322Z,100497.20
2022-11-16T06:52:06.873Z,100501.48
2022-11-16T06:54:39.173Z,100496.66
2022-11-16T06:57:11.687Z,100498.46
2022-11-16T06:59:45.248Z,100497.78
2022-11-16T07:02:21.421Z,100499.89
2022-11-16T07:04:54.791Z,100501.44
2022-11-16T07:07:28.428Z,100498.29
2022-11-16T07:10:01.667Z,100502.20
2022-11-16T07:12:33.876Z,100506.52
2022-11-16T07:15:06.977Z,100508.47
2022-11-16T07:17:41.120Z,100500.92
2022-11-16T07:20:15.472Z,100502.25
2022-11-16T07:22:48.983Z,100502.70
2022-11-16T07:25:22.424Z,100499.77
2022-11-16T07:27:54.593Z,100498.36
2022-11-16T07:30:30.232Z,100495.08
2022-11-16T07:33:09.344Z,100495.60
2022-11-16T07:36:05.617Z,100502.51
2022-11-16T07:38:38.549Z,100500.41
2022-11-16T07:41:13.605Z,100499.61
2022-11-16T07:43:54.484Z,100493.23
2022-11-16T07:46:49.116Z,100496.67
2022-11-16T07:49:22.310Z,100503.13
2022-11-16T07:52:04.637Z,100502.25
2022-11-16T07:54:41.670Z,100498.80
2022-11-16T07:57:14.057Z,100498.66
2022-11-16T07:59:46.824Z,100499.10
2022-11-16T08:02:19.004Z,100496.48
2022-11-16T08:04:51.729Z,100494.15
2022-11-16T08:07:27.708Z,100495.47
2022-11-16T08:10:01.272Z,100494.48
2022-11-16T08:12:33.681Z,100500.55
2022-11-16T08:15:06.675Z,100500.75
2022-11-16T08:17:38.964Z,100503.05
2022-11-16T08:20:12.978Z,100509.40
2022-11-16T08:22:46.312Z,100503.63
2022-11-16T08:25:21.134Z,100499.69
2022-11-16T08:27:53.348Z,100501.72
2022-11-16T08:30:25.909Z,100497.69
2022-11-16T08:32:58.336Z,100496.08
2022-11-16T08:35:30.942Z,100497.86
2022-11-16T08:38:22.636Z,100498.07
2022-11-16T08:40:58.139Z,100509.30
2022-11-16T08:43:31.135Z,100511.74
2022-11-16T08:46:03.623Z,100511.80
2022-11-16T08:48:37.055Z,100517.50
2022-11-16T08:51:20.412Z,100521.45
2022-11-16T08:53:59.996Z,100526.27
2022-11-16T08:56:44.073Z,100526.62
2022-11-16T08:59:16.944Z,100525.91
2022-11-16T09:01:52.668Z,100527.44
2022-11-16T09:04:25.218Z,100525.45
2022-11-16T09:06:57.499Z,100526.60
2022-11-16T09:09:30.477Z,100526.01
2022-11-16T09:12:02.748Z,100521.30
2022-11-16T09:14:35.019Z,100524.48
2022-11-16T09:17:07.257Z,100524.84
2022-11-16T09:19:39.552Z,100522.64
2022-11-16T09:22:11.822Z,100519.63
2022-11-16T09:24:43.990Z,100516.19
2022-11-16T09:27:16.933Z,100515.77
2022-11-16T09:29:49.193Z,100514.46
2022-11-16T09:32:21.368Z,100512.54
2022-11-16T09:34:53.860Z,100514.33
2022-11-16T09:37:26.002Z,100513.88
2022-11-16T09:39:59.235Z,100514.65
2022-11-16T09:42:47.160Z,100508.73
2022-11-16T09:45:26.348Z,100508.20
2022-11-16T09:48:03.061Z,100507.23
2022-11-16T09:50:47.496Z,100503.45
2022-11-16T09:53:34.022Z,100500.89
2022-11-16T09:56:13.712Z,100504.27
2022-11-16T09:58:53.459Z,100496.29
2022-11-16T10:01:31.028Z,100495.46
2022-11-16T10:04:10.978Z,100495.34
2022-11-16T10:06:51.627Z,100495.71
2022-11-16T10:09:25.876Z,100490.09
2022-11-16T10:12:17.286Z,100481.77
2022-11-16T10:15:43.585Z,100484.80
2022-11-16T10:18:39.667Z,100482.23
2022-11-16T10:21:21.659Z,100482.11
2022-11-16T10:24:10.825Z,100480.27
2022-11-16T10:26:52.062Z,100481.67
2022-11-16T10:29:46.529Z,100476.79
2022-11-16T10:32:28.310Z,100478.45
2022-11-16T10:35:06.298Z,100477.47
2022-11-16T10:37:42.220Z,100477.73
2022-11-16T10:40:21.827Z,100476.94
2022-11-16T10:43:11.736Z,100477.52
2022-11-16T10:45:51.564Z,100477.39
2022-11-16T10:48:37.390Z,100477.18
2022-11-16T10:51:10.878Z,100475.86
2022-11-16T10:53:44.941Z,100475.80
2022-11-16T10:56:22.305Z,100477.30
2022-11-16T10:59:00.456Z,100474.42
2022-11-16T11:01:53.583Z,100476.89
2022-11-16T11:04:28.546Z,100469.40
2022-11-16T11:07:22.416Z,100472.17
2022-11-16T11:09:56.741Z,100468.69
2022-11-16T11:12:41.650Z,100467.84
2022-11-16T11:15:36.164Z,100470.26
2022-11-16T11:18:25.743Z,100469.81
2022-11-16T11:21:14.394Z,100472.44
2022-11-16T11:23:53.928Z,100470.66
2022-11-16T11:26:36.623Z,100474.30
2022-11-16T11:29:22.394Z,100477.14
2022-11-16T11:31:56.864Z,100477.83
2022-11-16T11:34:30.978Z,100478.88
2022-11-16T11:37:06.281Z,100480.20
2022-11-16T11:40:06.795Z,100477.42
2022-11-16T11:42:52.281Z,100472.41
2022-11-16T11:45:31.767Z,100472.77
2022-11-16T11:48:07.618Z,100475.30
2022-11-16T11:50:51.245Z,100474.59
2022-11-16T11:53:38.906Z,100476.83
2022-11-16T11:56:15.022Z,100479.80
2022-11-16T11:58:49.468Z,100479.71
2022-11-16T12:01:58.963Z,100489.39
2022-11-16T12:04:59.604Z,100481.00
2022-11-16T12:07:53.120Z,100483.30
2022-11-16T12:10:36.246Z,100480.52
2022-11-16T12:13:37.987Z,100485.90
2022-11-16T12:16:20.153Z,100485.25
2022-11-16T12:19:10.796Z,100480.12
2022-11-16T12:21:51.862Z,100482.84
2022-11-16T12:24:38.150Z,100482.85
2022-11-16T12:27:27.076Z,100483.95
2022-11-16T12:30:08.172Z,100491.65
2022-11-16T12:33:12.504Z,100484.45
2022-11-16T12:35:54.908Z,100482.39
2022-11-16T12:38:49.586Z,100482.91
2022-11-16T12:41:45.519Z,100483.63
2022-11-16T12:44:25.939Z,100482.68
2022-11-16T12:47:05.542Z,100484.23
2022-11-16T12:49:56.871Z,100479.66
2022-11-16T12:52:44.992Z,100481.09
2022-11-16T12:55:33.942Z,100479.17
2022-11-16T12:58:23.356Z,100478.15
2022-11-16T13:01:06.836Z,100477.52
2022-11-16T13:03:48.063Z,100480.05
2022-11-16T13:06:28.473Z,100474.38
2022-11-16T13:09:08.688Z,100478.31
2022-11-16T13:11:45.352Z,100475.03
2022-11-16T13:14:21.396Z,100474.42
2022-11-16T13:16:54.868Z,100475.99
2022-11-16T13:19:27.709Z,100474.21
2022-11-16T13:22:06.348Z,100481.07
2022-11-16T13:24:48.600Z,100479.38
2022-11-16T13:27:34.830Z,100481.41
2022-11-16T13:30:16.497Z,100482.86
2022-11-16T13:33:04.737Z,100484.16
2022-11-16T13:35:39.227Z,100483.51
2022-11-16T13:38:14.179Z,100480.92
2022-11-16T13:40:46.559Z,100479.35
2022-11-16T13:43:20.810Z,100478.08
2022-11-16T13:45:59.524Z,100479.21
2022-11-16T13:48:35.874Z,100476.66
2022-11-16T13:51:17.342Z,100479.20
2022-11-16T13:56:52.199Z,100478.57
2022-11-16T13:59:32.580Z,100483.13
2022-11-16T14:02:26.696Z,100477.88
2022-11-16T14:05:03.406Z,100480.66
2022-11-16T14:07:43.238Z,100480.48
2022-11-16T14:10:54.859Z,100479.61
2022-11-16T14:13:45.663Z,100475.29
2022-11-16T14:16:47.671Z,100477.25
2022-11-16T14:19:56.282Z,100470.70
2022-11-16T14:22:54.393Z,100470.27
2022-11-16T14:25:39.228Z,100471.25
2022-11-16T14:28:34.362Z,100461.91
2022-11-16T14:31:19.342Z,100458.82
2022-11-16T14:33:58.250Z,100457.36
2022-11-16T14:36:44.056Z,100467.20
2022-11-16T14:39:28.299Z,100470.60
2022-11-16T14:42:07.290Z,100473.63
2022-11-16T14:44:41.648Z,100476.60
2022-11-16T14:47:26.536Z,100466.41
2022-11-16T14:49:59.286Z,100470.64
2022-11-16T14:52:38.034Z,100471.71
2022-11-16T14:55:18.780Z,100467.79
2022-11-16T14:58:07.292Z,100462.73
2022-11-16T15:00:42.357Z,100459.34
2022-11-16T15:03:15.773Z,100454.19
2022-11-16T15:05:48.025Z,100456.16
2022-11-16T15:08:24.222Z,100463.71
2022-11-16T15:10:57.603Z,100467.38
2022-11-16T15:13:30.546Z,100464.98
2022-11-16T15:16:17.256Z,100467.79
2022-11-16T15:19:03.680Z,100462.90
2022-11-16T15:21:37.957Z,100466.06
2022-11-16T15:24:30.395Z,100465.61
2022-11-16T15:27:26.746Z,100468.30
2022-11-16T15:30:01.376Z,100469.08
2022-11-16T15:32:38.826Z,100469.17
2022-11-16T15:35:21.202Z,100467.52
2022-11-16T15:38:06.342Z,100468.95
2022-11-16T15:40:39.395Z,100467.83
2022-11-16T15:43:14.688Z,100468.08
2022-11-16T15:45:50.440Z,100471.14
2022-11-16T15:48:25.428Z,100471.90
2022-11-16T15:51:09.405Z,100475.55
2022-11-16T15:53:44.531Z,100475.58
2022-11-16T15:56:20.732Z,100480.59
2022-11-16T15:58:54.256Z,100481.06
2022-11-16T16:01:28.387Z,100484.44
2022-11-16T16:04:03.740Z,100480.54
2022-11-16T16:06:50.615Z,100481.93
2022-11-16T16:09:26.979Z,100478.88
2022-11-16T16:12:16.607Z,100479.70
2022-11-16T16:14:50.323Z,100481.08
2022-11-16T16:17:27.870Z,100486.47
2022-11-16T16:20:01.797Z,100485.77
2022-11-16T16:22:44.386Z,100495.05
2022-11-16T16:25:31.640Z,100498.21
2022-11-16T16:28:06.043Z,100496.93
2022-11-16T16:30:39.442Z,100501.74
2022-11-16T16:33:17.365Z,100508.57
2022-11-16T16:35:52.965Z,100506.44
2022-11-16T16:38:25.187Z,100513.41
2022-11-16T16:41:03.138Z,100508.77
2022-11-16T16:43:36.565Z,100506.15
2022-11-16T16:46:12.439Z,100511.09
2022-11-16T16:48:44.908Z,100516.75
2022-11-16T16:51:17.393Z,100525.08
2022-11-16T16:53:49.698Z,100525.92
2022-11-16T16:56:22.355Z,100530.20
2022-11-16T16:58:54.912Z,100529.13
2022-11-16T17:01:27.358Z,100526.68
2022-11-16T17:04:00.586Z,100523.60
2022-11-16T17:06:33.626Z,100522.89
2022-11-16T17:09:08.098Z,100523.48
2022-11-16T17:11:40.452Z,100520.34
2022-11-16T17:14:15.533Z,100521.74
2022-11-16T17:16:48.766Z,100521.54
2022-11-16T17:19:22.932Z,100524.27
2022-11-16T17:21:55.553Z,100525.33
2022-11-16T17:24:27.924Z,100529.00
2022-11-16T17:27:00.281Z,100528.67
2022-11-16T17:29:32.788Z,100531.33
2022-11-16T17:32:07.473Z,100530.89
2022-11-16T17:34:41.730Z,100533.98
2022-11-16T17:37:15.102Z,100538.36
2022-11-16T17:39:49.091Z,100537.79
2022-11-16T17:42:21.761Z,100535.15
2022-11-16T17:44:55.230Z,100531.08
2022-11-16T17:47:27.892Z,100533.70
2022-11-16T17:50:02.103Z,100535.80
2022-11-16T17:52:34.844Z,100533.86
2022-11-16T17:55:09.995Z,100533.70
2022-11-16T17:57:43.503Z,100534.05
2022-11-16T18:00:19.624Z,100527.84
2022-11-16T18:02:51.829Z,100531.39
2022-11-16T18:05:24.274Z,100537.70
2022-11-16T18:07:58.108Z,100535.67
2022-11-16T18:10:30.230Z,100531.65
2022-11-16T18:13:02.599Z,100534.80
2022-11-16T18:15:42.191Z,100530.91
2022-11-16T18:18:15.294Z,100528.80
2022-11-16T18:20:50.879Z,100522.95
2022-11-16T18:23:23.416Z,100522.23
2022-11-16T18:25:56.254Z,100519.72
2022-11-16T18:28:28.989Z,100523.02
2022-11-16T18:31:07.621Z,100520.19
2022-11-16T18:33:40.843Z,100524.64
2022-11-16T18:36:13.841Z,100517.30
2022-11-16T18:38:46.838Z,100521.48
2022-11-16T18:41:22.021Z,100522.14
2022-11-16T18:43:55.894Z,100524.33
2022-11-16T18:46:29.892Z,100525.39
2022-11-16T18:49:18.308Z,100523.06
2022-11-16T18:51:50.575Z,100522.84
2022-11-16T18:54:24.338Z,100523.67
2022-11-16T18:56:57.742Z,100526.76
2022-11-16T18:59:32.186Z,100525.80
2022-11-16T19:02:05.116Z,100523.92
2022-11-16T19:04:40.384Z,100520.54
2022-11-16T19:07:14.319Z,100523.86
2022-11-16T19:09:49.596Z,100526.36
2022-11-16T19:12:22.403Z,100523.66
2022-11-16T19:14:56.848Z,100526.75
2022-11-16T19:17:30.956Z,100527.05
2022-11-16T19:20:04.646Z,100529.67
2022-11-16T19:22:37.705Z,100532.34
2022-11-16T19:25:14.423Z,100530.47
2022-11-16T19:27:47.272Z,100530.27
2022-11-16T19:30:22.254Z,100532.42
2022-11-16T19:33:02.233Z,100530.41
2022-11-16T19:35:35.180Z,100526.42
2022-11-16T19:38:07.388Z,100526.39
2022-11-16T19:40:40.999Z,100525.64
2022-11-16T19:43:15.618Z,100521.52
2022-11-16T19:45:53.841Z,100518.58
2022-11-16T19:48:27.340Z,100520.44
2022-11-16T19:51:04.760Z,100516.70
2022-11-16T19:54:06.721Z,100522.65
2022-11-16T19:56:40.404Z,100520.35
2022-11-16T19:59:14.768Z,100517.61
2022-11-16T20:01:49.205Z,100514.89
2022-11-16T20:04:22.798Z,100515.13
2022-11-16T20:07:01.316Z,100520.74
2022-11-16T20:09:48.183Z,100523.38
2022-11-16T20:12:25.584Z,100526.06
2022-11-16T20:15:01.688Z,100525.29
2022-11-16T20:17:39.478Z,100526.90
2022-11-16T20:20:51.046Z,100529.92
2022-11-16T20:23:23.640Z,100529.40
2022-11-16T20:25:56.760Z,100532.02
2022-11-16T20:31:51.969Z,100528.27
2022-11-16T20:34:24.797Z,100531.29
2022-11-16T20:36:57.435Z,100525.96
2022-11-16T20:39:29.901Z,100531.35
2022-11-16T20:42:05.945Z,100528.78
2022-11-16T20:44:38.180Z,100529.55
2022-11-16T20:47:11.222Z,100531.64
2022-11-16T20:49:48.792Z,100527.29
2022-11-16T20:52:24.960Z,100518.16
2022-11-16T20:54:59.085Z,100529.11
2022-11-16T20:57:33.485Z,100530.33
2022-11-16T21:00:08.912Z,100534.89
2022-11-16T21:02:41.133Z,100533.99
2022-11-16T21:08:25.314Z,100529.09
2022-11-16T21:10:58.398Z,100532.85
2022-11-16T21:13:48.232Z,100529.98
2022-11-16T21:16:20.919Z,100527.31
2022-11-16T21:18:54.256Z,100528.37
2022-11-16T21:21:36.457Z,100530.48
2022-11-16T21:24:24.952Z,100531.23
2022-11-16T21:26:57.158Z,100533.58
2022-11-16T21:29:30.490Z,100533.11
2022-11-16T21:32:02.914Z,100528.21
2022-11-16T21:34:40.002Z,100528.21
2022-11-16T21:37:46.969Z,100527.42
2022-11-16T21:40:22.892Z,100523.06
2022-11-16T21:42:55.505Z,100524.33
2022-11-16T21:45:30.103Z,100521.91
2022-11-16T21:48:35.680Z,100524.05
2022-11-16T21:51:10.201Z,100524.44
2022-11-16T21:53:42.606Z,100523.09
2022-11-16T21:56:16.731Z,100524.44
2022-11-16T21:58:50.533Z,100525.46
2022-11-16T22:01:24.286Z,100524.55
2022-11-16T22:04:17.069Z,100526.51
2022-11-16T22:07:10.239Z,100525.17
2022-11-16T22:09:42.558Z,100519.33
2022-11-16T22:12:14.717Z,100520.05
2022-11-16T22:14:46.845Z,100527.55
2022-11-16T22:17:19.168Z,100526.86
2022-11-16T22:19:51.310Z,100526.85
2022-11-16T22:22:23.562Z,100532.26
2022-11-16T22:24:55.953Z,100537.66
2022-11-16T22:27:28.496Z,100541.55
2022-11-16T22:30:00.642Z,100548.86
2022-11-16T22:32:32.787Z,100552.61
2022-11-16T22:35:07.556Z,100552.60
2022-11-16T22:37:39.863Z,100552.45
2022-11-16T22:40:31.252Z,100550.04
2022-11-16T22:43:06.898Z,100544.19
2022-11-16T22:45:41.180Z,100544.58
2022-11-16T22:48:13.309Z,100544.00
2022-11-16T22:50:45.475Z,100546.06
2022-11-16T22:53:17.698Z,100539.27
2022-11-16T22:55:50.058Z,100536.28
2022-11-16T22:58:24.619Z,100534.88
2022-11-16T23:00:57.137Z,100532.27
2022-11-16T23:03:29.925Z,100522.59
2022-11-16T23:06:02.279Z,100532.08
2022-11-16T23:08:35.677Z,100533.67
2022-11-16T23:11:27.790Z,100537.13
2022-11-16T23:14:18.599Z,100535.43
2022-11-16T23:16:51.971Z,100533.83
2022-11-16T23:19:42.924Z,100530.09
2022-11-16T23:22:37.161Z,100529.69
2022-11-16T23:25:29.813Z,100532.66
2022-11-16T23:28:06.683Z,100530.02
2022-11-16T23:30:39.987Z,100526.69
2022-11-16T23:33:13.438Z,100530.16
2022-11-16T23:35:45.588Z,100529.26
2022-11-16T23:38:17.935Z,100529.81
2022-11-16T23:40:50.086Z,100534.50
2022-11-16T23:43:39.913Z,100532.78
2022-11-16T23:46:14.692Z,100533.75
2022-11-16T23:48:46.886Z,100539.05
2022-11-16T23:51:19.626Z,100542.08
2022-11-16T23:53:52.812Z,100541.70
2022-11-16T23:56:28.633Z,100544.81
2022-11-16T23:59:00.811Z,100543.27
